Rutland, VT

4:07 AM EDT on September 26, 2017 (GMT -0400)
Rutland State

Weather History for KRUT - February, 2013

Change the Weather History Date:

Tuesday, February 12, 2013

  Actual Average Record
Temperature  
Mean Temperature 35 °F -  
Max Temperature 39 °F - 59 °F (1999)
Min Temperature 30 °F - -24 °F (1979)
Degree Days  
Heating Degree Days 30    
Month to date heating degree days 557  
Since 1 July heating degree days 4282  
Cooling Degree Days 0    
Month to date cooling degree days 0  
Year to date cooling degree days 0  
Moisture  
Dew Point 25 °F    
Average Humidity 69    
Maximum Humidity 78    
Minimum Humidity 59    
Precipitation  
Precipitation 0.00 in - 0.77 in (1998)
Month to date precipitation 0.00  
Year to date precipitation 1.24  
Sea Level Pressure  
Sea Level Pressure 29.70 in    
Wind  
Wind Speed 10 mph (West)    
Max Wind Speed 20 mph    
Max Gust Speed 29 mph    
Visibility 10 miles    
Events      
T = Trace of Precipitation, MM = Missing Value Source: NWS Daily Summary

Daily Weather History Graph

Daily Weather History Graph

Search for Another Location

Airport or City:

Trip Planner

Search our weather history database for the weather conditions in past years. The results will help you decide how hot, cold, wet, or windy it might be!

Date:

Astronomy

Feb. 12, 2013 Rise Set
Actual Time 6:54 AM EST 5:18 PM EST
Civil Twilight 6:24 AM EST 5:48 PM EST
Nautical Twilight 5:50 AM EST 6:21 PM EST
Astronomical Twilight 5:17 AM EST 6:55 PM EST
Moon 7:43 AM EST (2/12) 8:23 PM EST (2/12)
Length of Visible Light 11h 23m
Length of Day
10h 24m
Waxing Crescent, 7% of the Moon is Illuminated
Feb 12
Waxing Crescent
Feb 17
First Quarter
Feb 25
Full
Mar 4
Last Quarter
Mar 11
New

Hourly Weather History & Observations

Time (EST) Temp. Windchill Dew Point Humidity Pressure Visibility Wind Dir Wind Speed Gust Speed Precip Events Conditions
12:15 AM 35.6 °F 27.5 °F 28.4 °F 75% 29.62 in 10.0 mi WSW 11.5 mph 16.1 mph N/A   Overcast
12:35 AM 35.6 °F 28.0 °F 28.4 °F 75% 29.63 in 10.0 mi WSW 10.4 mph - N/A   Overcast
12:55 AM 35.6 °F 27.5 °F 28.4 °F 75% 29.62 in 9.0 mi WSW 11.5 mph - N/A   Overcast
1:15 AM 35.6 °F 27.5 °F 26.6 °F 70% 29.62 in 10.0 mi WSW 11.5 mph 16.1 mph N/A   Overcast
1:35 AM 35.6 °F 27.1 °F 26.6 °F 70% 29.62 in 10.0 mi WSW 12.7 mph - N/A   Overcast
1:55 AM 35.6 °F 28.0 °F 26.6 °F 70% 29.63 in 10.0 mi West 10.4 mph - N/A   Overcast
2:15 AM 33.8 °F 25.3 °F 26.6 °F 75% 29.63 in 9.0 mi West 11.5 mph - N/A   Overcast
2:35 AM 33.8 °F 25.8 °F 26.6 °F 75% 29.63 in 10.0 mi WSW 10.4 mph - N/A   Overcast
2:55 AM 33.8 °F 25.8 °F 26.6 °F 75% 29.62 in 9.0 mi WSW 10.4 mph - N/A   Overcast
3:15 AM 33.8 °F 25.8 °F 26.6 °F 75% 29.62 in 9.0 mi WSW 10.4 mph 18.4 mph N/A   Overcast
3:35 AM 33.8 °F 26.4 °F 26.6 °F 75% 29.62 in 9.0 mi West 9.2 mph - N/A   Overcast
3:55 AM 33.8 °F 24.8 °F 24.8 °F 70% 29.62 in 10.0 mi WSW 12.7 mph - N/A   Overcast
4:15 AM 35.6 °F 27.1 °F 24.8 °F 65% 29.62 in 10.0 mi WSW 12.7 mph 17.3 mph N/A   Overcast
4:35 AM 33.8 °F 26.4 °F 24.8 °F 70% 29.62 in 10.0 mi WSW 9.2 mph - N/A   Overcast
4:55 AM 35.6 °F 28.0 °F 24.8 °F 65% 29.62 in 10.0 mi West 10.4 mph 18.4 mph N/A   Overcast
5:15 AM 35.6 °F 29.2 °F 24.8 °F 65% 29.63 in 10.0 mi WSW 8.1 mph - N/A   Overcast
5:35 AM 35.6 °F 29.9 °F 24.8 °F 65% 29.63 in 10.0 mi WSW 6.9 mph - N/A   Overcast
5:55 AM 35.6 °F 29.2 °F 24.8 °F 65% 29.63 in 10.0 mi WSW 8.1 mph - N/A   Overcast
6:15 AM 35.6 °F 27.5 °F 24.8 °F 65% 29.64 in 10.0 mi WSW 11.5 mph 18.4 mph N/A   Overcast
6:35 AM 35.6 °F 27.5 °F 24.8 °F 65% 29.64 in 10.0 mi WSW 11.5 mph 18.4 mph N/A   Overcast
6:55 AM 35.6 °F 29.2 °F 24.8 °F 65% 29.65 in 10.0 mi SW 8.1 mph - N/A   Overcast
7:15 AM 35.6 °F 29.2 °F 24.8 °F 65% 29.65 in 10.0 mi WSW 8.1 mph - N/A   Overcast
7:35 AM 35.6 °F 30.7 °F 24.8 °F 65% 29.65 in 10.0 mi SW 5.8 mph 16.1 mph N/A   Overcast
7:55 AM 35.6 °F 27.5 °F 24.8 °F 65% 29.65 in 10.0 mi WSW 11.5 mph 16.1 mph N/A   Overcast
8:15 AM 35.6 °F 28.0 °F 24.8 °F 65% 29.65 in 10.0 mi WSW 10.4 mph - N/A   Overcast
8:35 AM 35.6 °F 27.5 °F 24.8 °F 65% 29.65 in 10.0 mi WSW 11.5 mph 27.6 mph N/A   Overcast
8:55 AM 35.6 °F 27.1 °F 24.8 °F 65% 29.65 in 10.0 mi WSW 12.7 mph - N/A   Overcast
9:15 AM 35.6 °F 29.2 °F 24.8 °F 65% 29.65 in 10.0 mi WSW 8.1 mph - N/A   Overcast
9:35 AM 35.6 °F 28.6 °F 24.8 °F 65% 29.66 in 10.0 mi WSW 9.2 mph - N/A   Overcast
9:55 AM 35.6 °F 28.0 °F 24.8 °F 65% 29.67 in 10.0 mi WSW 10.4 mph 28.8 mph N/A   Overcast
10:15 AM 35.6 °F 26.6 °F 24.8 °F 65% 29.66 in 10.0 mi WSW 13.8 mph 21.9 mph N/A   Overcast
10:35 AM 35.6 °F 24.8 °F 24.8 °F 65% 29.67 in 10.0 mi West 19.6 mph 26.5 mph N/A   Overcast
10:55 AM 35.6 °F 26.6 °F 26.6 °F 70% 29.68 in 10.0 mi West 13.8 mph 21.9 mph N/A   Overcast
11:15 AM 37.4 °F 29.8 °F 24.8 °F 60% 29.68 in 10.0 mi West 11.5 mph 19.6 mph N/A   Overcast
11:35 AM 37.4 °F 28.2 °F 26.6 °F 65% 29.68 in 10.0 mi West 16.1 mph - N/A   Overcast
11:55 AM 37.4 °F 29.8 °F 24.8 °F 60% 29.68 in 10.0 mi West 11.5 mph 18.4 mph N/A   Overcast
12:15 PM 39.2 °F 31.2 °F 24.8 °F 56% 29.68 in 10.0 mi West 13.8 mph 24.2 mph N/A   Overcast
12:35 PM 37.4 °F 28.2 °F 24.8 °F 60% 29.69 in 10.0 mi WNW 16.1 mph 26.5 mph N/A   Overcast
12:55 PM 37.4 °F 27.2 °F 24.8 °F 60% 29.70 in 10.0 mi WNW 19.6 mph 27.6 mph N/A   Overcast
1:15 PM 37.4 °F 28.5 °F 24.8 °F 60% 29.70 in 10.0 mi WNW 15.0 mph 23.0 mph N/A   Overcast
1:35 PM 37.4 °F 28.9 °F 24.8 °F 60% 29.71 in 10.0 mi West 13.8 mph 21.9 mph N/A   Overcast
1:55 PM 37.4 °F 28.5 °F 24.8 °F 60% 29.71 in 10.0 mi West 15.0 mph 21.9 mph N/A   Overcast
2:15 PM 37.4 °F 28.5 °F 24.8 °F 60% 29.71 in 10.0 mi WNW 15.0 mph 23.0 mph N/A   Overcast
2:35 PM 37.4 °F 29.8 °F 24.8 °F 60% 29.72 in 10.0 mi West 11.5 mph 18.4 mph N/A   Overcast
2:55 PM 37.4 °F 30.3 °F 24.8 °F 60% 29.73 in 10.0 mi West 10.4 mph 19.6 mph N/A   Overcast
3:15 PM 37.4 °F 30.8 °F 24.8 °F 60% 29.74 in 10.0 mi WNW 9.2 mph 23.0 mph N/A   Overcast
3:35 PM 37.4 °F 27.8 °F 24.8 °F 60% 29.73 in 10.0 mi WNW 17.3 mph 24.2 mph N/A   Overcast
3:55 PM 37.4 °F 28.9 °F 24.8 °F 60% 29.73 in 10.0 mi WNW 13.8 mph 24.2 mph N/A   Overcast
4:15 PM 35.6 °F 27.5 °F 24.8 °F 65% 29.74 in 10.0 mi West 11.5 mph 19.6 mph N/A   Overcast
4:35 PM 35.6 °F 25.2 °F 24.8 °F 65% 29.74 in 10.0 mi West 18.4 mph - N/A   Overcast
4:55 PM 35.6 °F 31.7 °F 24.8 °F 65% 29.75 in 10.0 mi WNW 4.6 mph 20.7 mph N/A   Overcast
5:15 PM 35.6 °F 28.0 °F 24.8 °F 65% 29.76 in 10.0 mi West 10.4 mph 16.1 mph N/A   Overcast
5:35 PM 35.6 °F 26.6 °F 24.8 °F 65% 29.76 in 10.0 mi West 13.8 mph 19.6 mph N/A   Overcast
5:55 PM 33.8 °F 25.3 °F 23.0 °F 65% 29.75 in 10.0 mi West 11.5 mph 17.3 mph N/A   Overcast
6:15 PM 33.8 °F 29.6 °F 23.0 °F 65% 29.77 in 10.0 mi WNW 4.6 mph - N/A   Overcast
6:35 PM 33.8 °F 26.4 °F 23.0 °F 65% 29.77 in 10.0 mi NW 9.2 mph 17.3 mph N/A   Overcast
6:55 PM 33.8 °F 25.8 °F 23.0 °F 65% 29.79 in 10.0 mi West 10.4 mph 16.1 mph N/A   Overcast
7:15 PM 33.8 °F 28.6 °F 24.8 °F 70% 29.80 in 10.0 mi West 5.8 mph - N/A   Overcast
7:35 PM 33.8 °F 27.7 °F 24.8 °F 70% 29.81 in 10.0 mi West 6.9 mph - N/A   Overcast
7:55 PM 33.8 °F 28.6 °F 24.8 °F 70% 29.82 in 10.0 mi West 5.8 mph - N/A   Overcast
8:15 PM 33.8 °F 27.7 °F 23.0 °F 65% 29.83 in 10.0 mi West 6.9 mph - N/A   Overcast
8:35 PM 33.8 °F 28.6 °F 24.8 °F 70% 29.84 in 10.0 mi West 5.8 mph - N/A   Overcast
8:55 PM 33.8 °F 28.6 °F 24.8 °F 70% 29.84 in 10.0 mi West 5.8 mph - N/A   Overcast
9:15 PM 33.8 °F 28.6 °F 24.8 °F 70% 29.85 in 10.0 mi WNW 5.8 mph - N/A   Overcast
9:35 PM 33.8 °F 28.6 °F 24.8 °F 70% 29.84 in 10.0 mi WNW 5.8 mph - N/A   Overcast
9:55 PM 32.0 °F 27.5 °F 24.8 °F 75% 29.83 in 10.0 mi NW 4.6 mph - N/A   Overcast
10:15 PM 32.0 °F 25.6 °F 24.8 °F 75% 29.82 in 9.0 mi NNW 6.9 mph - N/A   Overcast
10:35 PM 32.0 °F 25.6 °F 24.8 °F 75% 29.82 in 10.0 mi WNW 6.9 mph - N/A   Overcast
11:15 PM 30.2 °F 25.4 °F 24.8 °F 80% 29.81 in 10.0 mi NNW 4.6 mph - N/A   Overcast
11:35 PM 30.2 °F 24.3 °F 23.0 °F 75% 29.82 in 9.0 mi NNW 5.8 mph - N/A   Overcast
11:55 PM 32.0 °F 26.4 °F 21.2 °F 64% 29.82 in 10.0 mi NW 5.8 mph - N/A   Overcast